sensor_id;sensor_type;location;lat;lon;timestamp;temperature;humidity
18934;DHT22;9599;53.706;10.384;2023-02-01T00:00:37;5.50;99.90
18934;DHT22;9599;53.706;10.384;2023-02-01T00:03:06;5.50;99.90
18934;DHT22;9599;53.706;10.384;2023-02-01T00:05:35;5.50;99.90
18934;DHT22;9599;53.706;10.384;2023-02-01T00:08:04;5.50;99.90
18934;DHT22;9599;53.706;10.384;2023-02-01T00:10:32;5.50;99.90
18934;DHT22;9599;53.706;10.384;2023-02-01T00:13:01;5.50;99.90
18934;DHT22;9599;53.706;10.384;2023-02-01T00:15:29;5.50;99.90
18934;DHT22;9599;53.706;10.384;2023-02-01T00:17:57;5.50;99.90
18934;DHT22;9599;53.706;10.384;2023-02-01T00:20:24;5.50;99.90
18934;DHT22;9599;53.706;10.384;2023-02-01T00:22:52;5.50;99.90
18934;DHT22;9599;53.706;10.384;2023-02-01T00:25:20;5.50;99.90
18934;DHT22;9599;53.706;10.384;2023-02-01T00:27:48;5.50;99.90
18934;DHT22;9599;53.706;10.384;2023-02-01T00:30:18;5.50;99.90
18934;DHT22;9599;53.706;10.384;2023-02-01T00:32:47;5.50;99.90
18934;DHT22;9599;53.706;10.384;2023-02-01T00:35:15;5.40;99.90
18934;DHT22;9599;53.706;10.384;2023-02-01T00:37:43;5.40;99.90
18934;DHT22;9599;53.706;10.384;2023-02-01T00:40:11;5.50;99.90
18934;DHT22;9599;53.706;10.384;2023-02-01T00:42:40;5.50;99.90
18934;DHT22;9599;53.706;10.384;2023-02-01T00:45:09;5.40;99.90
18934;DHT22;9599;53.706;10.384;2023-02-01T00:47:38;5.40;99.90
18934;DHT22;9599;53.706;10.384;2023-02-01T00:50:07;5.40;99.90
18934;DHT22;9599;53.706;10.384;2023-02-01T00:52:35;5.50;99.90
18934;DHT22;9599;53.706;10.384;2023-02-01T00:55:04;5.50;99.90
18934;DHT22;9599;53.706;10.384;2023-02-01T00:57:32;5.50;99.90
18934;DHT22;9599;53.706;10.384;2023-02-01T01:00:00;5.40;99.90
18934;DHT22;9599;53.706;10.384;2023-02-01T01:02:28;5.50;99.90
18934;DHT22;9599;53.706;10.384;2023-02-01T01:04:57;5.40;99.90
18934;DHT22;9599;53.706;10.384;2023-02-01T01:07:25;5.50;99.90
18934;DHT22;9599;53.706;10.384;2023-02-01T01:09:53;5.50;99.90
18934;DHT22;9599;53.706;10.384;2023-02-01T01:12:21;5.50;99.90
18934;DHT22;9599;53.706;10.384;2023-02-01T01:14:49;5.60;99.90
18934;DHT22;9599;53.706;10.384;2023-02-01T01:17:17;5.60;99.90
18934;DHT22;9599;53.706;10.384;2023-02-01T01:19:45;5.70;99.90
18934;DHT22;9599;53.706;10.384;2023-02-01T01:22:14;5.70;99.90
18934;DHT22;9599;53.706;10.384;2023-02-01T01:24:43;5.70;99.90
18934;DHT22;9599;53.706;10.384;2023-02-01T01:27:11;5.70;99.90
18934;DHT22;9599;53.706;10.384;2023-02-01T01:29:38;5.80;99.90
18934;DHT22;9599;53.706;10.384;2023-02-01T01:32:06;5.70;99.90
18934;DHT22;9599;53.706;10.384;2023-02-01T01:34:34;5.70;99.90
18934;DHT22;9599;53.706;10.384;2023-02-01T01:37:02;5.70;99.90
18934;DHT22;9599;53.706;10.384;2023-02-01T01:39:32;5.70;99.90
18934;DHT22;9599;53.706;10.384;2023-02-01T01:42:00;5.70;99.90
18934;DHT22;9599;53.706;10.384;2023-02-01T01:44:59;5.70;99.90
18934;DHT22;9599;53.706;10.384;2023-02-01T01:47:32;5.70;99.90
18934;DHT22;9599;53.706;10.384;2023-02-01T01:50:02;5.70;99.90
18934;DHT22;9599;53.706;10.384;2023-02-01T01:52:32;5.70;99.90
18934;DHT22;9599;53.706;10.384;2023-02-01T01:55:02;5.70;99.90
18934;DHT22;9599;53.706;10.384;2023-02-01T01:57:33;5.70;99.90
18934;DHT22;9599;53.706;10.384;2023-02-01T02:00:07;5.80;99.90
18934;DHT22;9599;53.706;10.384;2023-02-01T02:02:46;5.80;99.90
18934;DHT22;9599;53.706;10.384;2023-02-01T02:05:16;5.80;99.90
18934;DHT22;9599;53.706;10.384;2023-02-01T02:07:46;5.90;99.90
18934;DHT22;9599;53.706;10.384;2023-02-01T02:10:17;5.90;99.90
18934;DHT22;9599;53.706;10.384;2023-02-01T02:12:47;5.90;99.90
18934;DHT22;9599;53.706;10.384;2023-02-01T02:15:16;5.90;99.90
18934;DHT22;9599;53.706;10.384;2023-02-01T02:17:50;6.00;99.90
18934;DHT22;9599;53.706;10.384;2023-02-01T02:20:35;5.90;99.90
18934;DHT22;9599;53.706;10.384;2023-02-01T02:23:26;6.00;99.90
18934;DHT22;9599;53.706;10.384;2023-02-01T02:26:22;6.00;99.90
18934;DHT22;9599;53.706;10.384;2023-02-01T02:32:17;6.00;99.90
18934;DHT22;9599;53.706;10.384;2023-02-01T02:34:55;6.00;99.90
18934;DHT22;9599;53.706;10.384;2023-02-01T02:37:30;6.00;99.90
18934;DHT22;9599;53.706;10.384;2023-02-01T02:40:06;6.00;99.90
18934;DHT22;9599;53.706;10.384;2023-02-01T02:42:40;6.10;99.90
18934;DHT22;9599;53.706;10.384;2023-02-01T02:45:31;6.10;99.90
18934;DHT22;9599;53.706;10.384;2023-02-01T02:48:23;6.10;99.90
18934;DHT22;9599;53.706;10.384;2023-02-01T02:50:59;6.00;99.90
18934;DHT22;9599;53.706;10.384;2023-02-01T02:53:56;6.00;99.90
18934;DHT22;9599;53.706;10.384;2023-02-01T02:56:44;6.00;99.90
18934;DHT22;9599;53.706;10.384;2023-02-01T02:59:30;6.00;99.90
18934;DHT22;9599;53.706;10.384;2023-02-01T03:02:18;6.00;99.90
18934;DHT22;9599;53.706;10.384;2023-02-01T03:05:04;6.10;99.90
18934;DHT22;9599;53.706;10.384;2023-02-01T03:08:00;6.00;99.90
18934;DHT22;9599;53.706;10.384;2023-02-01T03:10:35;5.90;99.90
18934;DHT22;9599;53.706;10.384;2023-02-01T03:13:09;5.70;99.90
18934;DHT22;9599;53.706;10.384;2023-02-01T03:15:43;5.60;99.90
18934;DHT22;9599;53.706;10.384;2023-02-01T03:18:15;5.50;99.90
18934;DHT22;9599;53.706;10.384;2023-02-01T03:20:50;5.30;99.90
18934;DHT22;9599;53.706;10.384;2023-02-01T03:23:23;5.20;99.90
18934;DHT22;9599;53.706;10.384;2023-02-01T03:25:55;5.20;99.90
18934;DHT22;9599;53.706;10.384;2023-02-01T03:28:25;5.20;99.90
18934;DHT22;9599;53.706;10.384;2023-02-01T03:30:53;5.20;99.90
18934;DHT22;9599;53.706;10.384;2023-02-01T03:33:25;5.20;99.90
18934;DHT22;9599;53.706;10.384;2023-02-01T03:36:03;5.20;99.90
18934;DHT22;9599;53.706;10.384;2023-02-01T03:38:39;5.20;99.90
18934;DHT22;9599;53.706;10.384;2023-02-01T03:41:17;5.20;99.90
18934;DHT22;9599;53.706;10.384;2023-02-01T03:43:51;5.30;99.90
18934;DHT22;9599;53.706;10.384;2023-02-01T03:46:27;5.30;99.90
18934;DHT22;9599;53.706;10.384;2023-02-01T03:49:02;5.30;99.90
18934;DHT22;9599;53.706;10.384;2023-02-01T03:51:31;5.30;99.90
18934;DHT22;9599;53.706;10.384;2023-02-01T03:54:03;5.20;99.90
18934;DHT22;9599;53.706;10.384;2023-02-01T03:56:36;5.20;99.90
18934;DHT22;9599;53.706;10.384;2023-02-01T03:59:05;5.20;99.90
18934;DHT22;9599;53.706;10.384;2023-02-01T04:01:34;5.20;99.90
18934;DHT22;9599;53.706;10.384;2023-02-01T04:04:03;5.30;99.90
18934;DHT22;9599;53.706;10.384;2023-02-01T04:06:32;5.30;99.90
18934;DHT22;9599;53.706;10.384;2023-02-01T04:09:04;5.30;99.90
18934;DHT22;9599;53.706;10.384;2023-02-01T04:11:32;5.30;99.90
18934;DHT22;9599;53.706;10.384;2023-02-01T04:13:59;5.30;99.90
18934;DHT22;9599;53.706;10.384;2023-02-01T04:16:30;5.30;99.90
18934;DHT22;9599;53.706;10.384;2023-02-01T04:19:00;5.20;99.90
18934;DHT22;9599;53.706;10.384;2023-02-01T04:21:28;5.20;99.90
18934;DHT22;9599;53.706;10.384;2023-02-01T04:23:56;5.20;99.90
18934;DHT22;9599;53.706;10.384;2023-02-01T04:26:25;5.20;99.90
18934;DHT22;9599;53.706;10.384;2023-02-01T04:28:54;5.20;99.90
18934;DHT22;9599;53.706;10.384;2023-02-01T04:31:22;5.20;99.90
18934;DHT22;9599;53.706;10.384;2023-02-01T04:33:52;5.20;99.90
18934;DHT22;9599;53.706;10.384;2023-02-01T04:36:21;5.20;99.90
18934;DHT22;9599;53.706;10.384;2023-02-01T04:38:49;5.30;99.90
18934;DHT22;9599;53.706;10.384;2023-02-01T04:41:18;5.20;99.90
18934;DHT22;9599;53.706;10.384;2023-02-01T04:43:50;5.30;99.90
18934;DHT22;9599;53.706;10.384;2023-02-01T04:46:18;5.30;99.90
18934;DHT22;9599;53.706;10.384;2023-02-01T04:48:46;5.30;99.90
18934;DHT22;9599;53.706;10.384;2023-02-01T04:51:14;5.30;99.90
18934;DHT22;9599;53.706;10.384;2023-02-01T04:53:42;5.30;99.90
18934;DHT22;9599;53.706;10.384;2023-02-01T04:56:10;5.20;99.90
18934;DHT22;9599;53.706;10.384;2023-02-01T04:58:38;5.10;99.90
18934;DHT22;9599;53.706;10.384;2023-02-01T05:01:08;5.00;99.90
18934;DHT22;9599;53.706;10.384;2023-02-01T05:03:35;5.00;99.90
18934;DHT22;9599;53.706;10.384;2023-02-01T05:06:04;4.80;99.90
18934;DHT22;9599;53.706;10.384;2023-02-01T05:08:32;4.80;99.90
18934;DHT22;9599;53.706;10.384;2023-02-01T05:11:00;4.80;99.90
18934;DHT22;9599;53.706;10.384;2023-02-01T05:13:30;4.80;99.90
18934;DHT22;9599;53.706;10.384;2023-02-01T05:16:16;4.80;99.90
18934;DHT22;9599;53.706;10.384;2023-02-01T05:18:44;4.80;99.90
18934;DHT22;9599;53.706;10.384;2023-02-01T05:21:12;4.80;99.90
18934;DHT22;9599;53.706;10.384;2023-02-01T05:23:41;4.80;99.90
18934;DHT22;9599;53.706;10.384;2023-02-01T05:26:23;4.80;99.90
18934;DHT22;9599;53.706;10.384;2023-02-01T05:28:51;4.80;99.90
18934;DHT22;9599;53.706;10.384;2023-02-01T05:31:21;4.80;99.90
18934;DHT22;9599;53.706;10.384;2023-02-01T05:33:49;4.80;99.90
18934;DHT22;9599;53.706;10.384;2023-02-01T05:36:17;4.90;99.90
18934;DHT22;9599;53.706;10.384;2023-02-01T05:38:45;4.90;99.90
18934;DHT22;9599;53.706;10.384;2023-02-01T05:41:13;4.90;99.90
18934;DHT22;9599;53.706;10.384;2023-02-01T05:43:41;4.80;99.90
18934;DHT22;9599;53.706;10.384;2023-02-01T05:46:09;4.80;99.90
18934;DHT22;9599;53.706;10.384;2023-02-01T05:48:41;4.80;99.90
18934;DHT22;9599;53.706;10.384;2023-02-01T05:51:11;4.90;99.90
18934;DHT22;9599;53.706;10.384;2023-02-01T05:53:39;4.90;99.90
18934;DHT22;9599;53.706;10.384;2023-02-01T05:56:09;4.90;99.90
18934;DHT22;9599;53.706;10.384;2023-02-01T05:58:37;4.90;99.90
18934;DHT22;9599;53.706;10.384;2023-02-01T06:01:05;4.80;99.90
18934;DHT22;9599;53.706;10.384;2023-02-01T06:03:33;4.80;99.90
18934;DHT22;9599;53.706;10.384;2023-02-01T06:06:02;4.70;99.90
18934;DHT22;9599;53.706;10.384;2023-02-01T06:08:32;4.60;99.90
18934;DHT22;9599;53.706;10.384;2023-02-01T06:11:00;4.50;99.90
18934;DHT22;9599;53.706;10.384;2023-02-01T06:13:28;4.40;99.90
18934;DHT22;9599;53.706;10.384;2023-02-01T06:16:00;4.40;99.90
18934;DHT22;9599;53.706;10.384;2023-02-01T06:18:28;4.40;99.90
18934;DHT22;9599;53.706;10.384;2023-02-01T06:20:58;4.40;99.90
18934;DHT22;9599;53.706;10.384;2023-02-01T06:23:28;4.40;99.90
18934;DHT22;9599;53.706;10.384;2023-02-01T06:26:02;4.30;99.90
18934;DHT22;9599;53.706;10.384;2023-02-01T06:28:32;4.30;99.90
18934;DHT22;9599;53.706;10.384;2023-02-01T06:31:03;4.30;99.90
18934;DHT22;9599;53.706;10.384;2023-02-01T06:33:33;4.20;99.90
18934;DHT22;9599;53.706;10.384;2023-02-01T06:36:03;4.30;99.90
18934;DHT22;9599;53.706;10.384;2023-02-01T06:38:35;4.30;99.90
18934;DHT22;9599;53.706;10.384;2023-02-01T06:41:03;4.20;99.90
18934;DHT22;9599;53.706;10.384;2023-02-01T06:43:31;4.20;99.90
18934;DHT22;9599;53.706;10.384;2023-02-01T06:46:00;4.30;99.90
18934;DHT22;9599;53.706;10.384;2023-02-01T06:48:29;4.20;99.90
18934;DHT22;9599;53.706;10.384;2023-02-01T06:50:57;4.20;99.90
18934;DHT22;9599;53.706;10.384;2023-02-01T06:53:25;4.20;99.90
18934;DHT22;9599;53.706;10.384;2023-02-01T06:55:56;4.20;99.90
18934;DHT22;9599;53.706;10.384;2023-02-01T06:58:24;4.20;99.90
18934;DHT22;9599;53.706;10.384;2023-02-01T07:00:55;4.20;99.90
18934;DHT22;9599;53.706;10.384;2023-02-01T07:03:23;4.10;99.90
18934;DHT22;9599;53.706;10.384;2023-02-01T07:05:55;4.10;99.90
18934;DHT22;9599;53.706;10.384;2023-02-01T07:08:23;4.10;99.90
18934;DHT22;9599;53.706;10.384;2023-02-01T07:10:51;4.10;99.90
18934;DHT22;9599;53.706;10.384;2023-02-01T07:13:20;4.10;99.90
18934;DHT22;9599;53.706;10.384;2023-02-01T07:15:48;4.10;99.90
18934;DHT22;9599;53.706;10.384;2023-02-01T07:18:16;4.10;99.90
18934;DHT22;9599;53.706;10.384;2023-02-01T07:20:49;4.10;99.90
18934;DHT22;9599;53.706;10.384;2023-02-01T07:23:17;4.10;99.90
18934;DHT22;9599;53.706;10.384;2023-02-01T07:25:45;4.10;99.90
18934;DHT22;9599;53.706;10.384;2023-02-01T07:28:13;4.20;99.90
18934;DHT22;9599;53.706;10.384;2023-02-01T07:30:43;4.20;99.90
18934;DHT22;9599;53.706;10.384;2023-02-01T07:33:19;4.30;99.90
18934;DHT22;9599;53.706;10.384;2023-02-01T07:35:48;4.30;99.90
18934;DHT22;9599;53.706;10.384;2023-02-01T07:38:16;4.40;99.90
18934;DHT22;9599;53.706;10.384;2023-02-01T07:40:44;4.40;99.90
18934;DHT22;9599;53.706;10.384;2023-02-01T07:43:11;4.50;99.90
18934;DHT22;9599;53.706;10.384;2023-02-01T07:45:39;4.50;99.90
18934;DHT22;9599;53.706;10.384;2023-02-01T07:48:09;4.50;99.90
18934;DHT22;9599;53.706;10.384;2023-02-01T07:50:37;4.60;99.90
18934;DHT22;9599;53.706;10.384;2023-02-01T07:53:04;4.70;99.90
18934;DHT22;9599;53.706;10.384;2023-02-01T07:55:33;4.70;99.90
18934;DHT22;9599;53.706;10.384;2023-02-01T07:58:01;4.70;99.90
18934;DHT22;9599;53.706;10.384;2023-02-01T08:00:29;4.80;99.90
18934;DHT22;9599;53.706;10.384;2023-02-01T08:03:16;4.90;99.90
18934;DHT22;9599;53.706;10.384;2023-02-01T08:05:44;4.90;99.90
18934;DHT22;9599;53.706;10.384;2023-02-01T08:08:11;5.00;99.90
18934;DHT22;9599;53.706;10.384;2023-02-01T08:10:39;5.10;99.90
18934;DHT22;9599;53.706;10.384;2023-02-01T08:13:07;5.10;99.90
18934;DHT22;9599;53.706;10.384;2023-02-01T08:15:36;5.20;99.90
18934;DHT22;9599;53.706;10.384;2023-02-01T08:18:04;5.20;99.90
18934;DHT22;9599;53.706;10.384;2023-02-01T08:20:33;5.30;99.90
18934;DHT22;9599;53.706;10.384;2023-02-01T08:23:02;5.40;99.90
18934;DHT22;9599;53.706;10.384;2023-02-01T08:25:30;5.40;99.90
18934;DHT22;9599;53.706;10.384;2023-02-01T08:27:58;5.50;99.90
18934;DHT22;9599;53.706;10.384;2023-02-01T08:30:26;5.60;99.90
18934;DHT22;9599;53.706;10.384;2023-02-01T08:32:57;5.60;99.90
18934;DHT22;9599;53.706;10.384;2023-02-01T08:35:25;5.70;99.90
18934;DHT22;9599;53.706;10.384;2023-02-01T08:38:09;5.70;99.90
18934;DHT22;9599;53.706;10.384;2023-02-01T08:40:37;5.70;99.90
18934;DHT22;9599;53.706;10.384;2023-02-01T08:43:05;5.70;99.90
18934;DHT22;9599;53.706;10.384;2023-02-01T08:45:33;5.70;99.90
18934;DHT22;9599;53.706;10.384;2023-02-01T08:48:01;5.80;99.90
18934;DHT22;9599;53.706;10.384;2023-02-01T08:50:29;5.80;99.90
18934;DHT22;9599;53.706;10.384;2023-02-01T08:52:57;5.80;99.90
18934;DHT22;9599;53.706;10.384;2023-02-01T08:55:26;5.80;99.90
18934;DHT22;9599;53.706;10.384;2023-02-01T08:57:54;5.80;99.90
18934;DHT22;9599;53.706;10.384;2023-02-01T09:00:22;5.80;99.90
18934;DHT22;9599;53.706;10.384;2023-02-01T09:02:51;5.40;99.90
18934;DHT22;9599;53.706;10.384;2023-02-01T09:05:18;5.10;99.90
18934;DHT22;9599;53.706;10.384;2023-02-01T09:07:49;5.00;99.90
18934;DHT22;9599;53.706;10.384;2023-02-01T09:10:17;4.90;99.90
18934;DHT22;9599;53.706;10.384;2023-02-01T09:13:01;4.90;99.90
18934;DHT22;9599;53.706;10.384;2023-02-01T09:15:29;5.00;99.90
18934;DHT22;9599;53.706;10.384;2023-02-01T09:17:58;5.10;99.90
18934;DHT22;9599;53.706;10.384;2023-02-01T09:20:25;5.20;99.90
18934;DHT22;9599;53.706;10.384;2023-02-01T09:22:55;5.20;99.90
18934;DHT22;9599;53.706;10.384;2023-02-01T09:25:23;5.20;99.90
18934;DHT22;9599;53.706;10.384;2023-02-01T09:27:51;5.30;99.90
18934;DHT22;9599;53.706;10.384;2023-02-01T09:30:20;5.20;99.90
18934;DHT22;9599;53.706;10.384;2023-02-01T09:32:49;5.20;99.90
18934;DHT22;9599;53.706;10.384;2023-02-01T09:35:17;5.10;99.90
18934;DHT22;9599;53.706;10.384;2023-02-01T09:37:45;5.10;99.90
18934;DHT22;9599;53.706;10.384;2023-02-01T09:40:14;5.10;99.90
18934;DHT22;9599;53.706;10.384;2023-02-01T09:43:01;5.10;99.90
18934;DHT22;9599;53.706;10.384;2023-02-01T09:45:38;5.20;99.90
18934;DHT22;9599;53.706;10.384;2023-02-01T09:48:13;5.20;99.90
18934;DHT22;9599;53.706;10.384;2023-02-01T09:50:47;5.30;99.90
18934;DHT22;9599;53.706;10.384;2023-02-01T09:53:21;5.30;99.90
18934;DHT22;9599;53.706;10.384;2023-02-01T09:55:53;5.40;99.90
18934;DHT22;9599;53.706;10.384;2023-02-01T09:58:27;5.40;99.90
18934;DHT22;9599;53.706;10.384;2023-02-01T10:00:58;5.50;99.90
18934;DHT22;9599;53.706;10.384;2023-02-01T10:03:29;5.60;99.90
18934;DHT22;9599;53.706;10.384;2023-02-01T10:06:10;5.60;99.90
18934;DHT22;9599;53.706;10.384;2023-02-01T10:08:59;5.70;99.90
18934;DHT22;9599;53.706;10.384;2023-02-01T10:11:38;5.70;99.90
18934;DHT22;9599;53.706;10.384;2023-02-01T10:14:35;5.80;99.90
18934;DHT22;9599;53.706;10.384;2023-02-01T10:17:16;5.90;99.90
18934;DHT22;9599;53.706;10.384;2023-02-01T10:19:55;6.00;99.90
18934;DHT22;9599;53.706;10.384;2023-02-01T10:22:39;6.00;99.90
18934;DHT22;9599;53.706;10.384;2023-02-01T10:25:32;6.00;99.90
18934;DHT22;9599;53.706;10.384;2023-02-01T10:28:03;6.10;99.90
18934;DHT22;9599;53.706;10.384;2023-02-01T10:30:37;6.10;99.90
18934;DHT22;9599;53.706;10.384;2023-02-01T10:33:15;6.20;99.90
18934;DHT22;9599;53.706;10.384;2023-02-01T10:35:45;6.30;99.90
18934;DHT22;9599;53.706;10.384;2023-02-01T10:38:19;6.40;99.90
18934;DHT22;9599;53.706;10.384;2023-02-01T10:40:49;6.50;99.90
18934;DHT22;9599;53.706;10.384;2023-02-01T10:43:20;6.50;99.90
18934;DHT22;9599;53.706;10.384;2023-02-01T10:45:48;6.60;99.90
18934;DHT22;9599;53.706;10.384;2023-02-01T10:48:17;6.60;99.90
18934;DHT22;9599;53.706;10.384;2023-02-01T10:50:51;6.60;99.90
18934;DHT22;9599;53.706;10.384;2023-02-01T10:53:25;6.60;99.90
18934;DHT22;9599;53.706;10.384;2023-02-01T10:55:56;6.50;99.90
18934;DHT22;9599;53.706;10.384;2023-02-01T10:58:28;6.50;99.90
18934;DHT22;9599;53.706;10.384;2023-02-01T11:01:00;6.50;99.90
18934;DHT22;9599;53.706;10.384;2023-02-01T11:03:37;6.40;99.90
18934;DHT22;9599;53.706;10.384;2023-02-01T11:06:16;6.40;99.90
18934;DHT22;9599;53.706;10.384;2023-02-01T11:08:47;6.30;99.90
18934;DHT22;9599;53.706;10.384;2023-02-01T11:11:16;6.40;99.90
18934;DHT22;9599;53.706;10.384;2023-02-01T11:13:52;6.40;99.90
18934;DHT22;9599;53.706;10.384;2023-02-01T11:16:21;6.40;99.90
18934;DHT22;9599;53.706;10.384;2023-02-01T11:18:54;6.40;99.90
18934;DHT22;9599;53.706;10.384;2023-02-01T11:21:22;6.50;99.90
18934;DHT22;9599;53.706;10.384;2023-02-01T11:23:50;6.40;99.90
18934;DHT22;9599;53.706;10.384;2023-02-01T11:26:22;6.40;99.90
18934;DHT22;9599;53.706;10.384;2023-02-01T11:28:54;6.40;99.90
18934;DHT22;9599;53.706;10.384;2023-02-01T11:31:24;6.50;99.90
18934;DHT22;9599;53.706;10.384;2023-02-01T11:33:58;6.50;99.90
18934;DHT22;9599;53.706;10.384;2023-02-01T11:36:30;6.50;99.90
18934;DHT22;9599;53.706;10.384;2023-02-01T11:39:17;6.50;99.90
18934;DHT22;9599;53.706;10.384;2023-02-01T11:42:03;6.40;99.90
18934;DHT22;9599;53.706;10.384;2023-02-01T11:44:35;6.40;99.90
18934;DHT22;9599;53.706;10.384;2023-02-01T11:47:23;6.30;99.90
18934;DHT22;9599;53.706;10.384;2023-02-01T11:49:54;6.30;99.90
18934;DHT22;9599;53.706;10.384;2023-02-01T11:52:41;6.40;99.90
18934;DHT22;9599;53.706;10.384;2023-02-01T11:55:24;6.40;99.90
18934;DHT22;9599;53.706;10.384;2023-02-01T11:58:12;6.40;99.90
18934;DHT22;9599;53.706;10.384;2023-02-01T12:01:00;6.50;99.90
18934;DHT22;9599;53.706;10.384;2023-02-01T12:03:48;6.60;99.90
18934;DHT22;9599;53.706;10.384;2023-02-01T12:06:28;6.50;99.90
18934;DHT22;9599;53.706;10.384;2023-02-01T12:09:13;6.60;99.90
18934;DHT22;9599;53.706;10.384;2023-02-01T12:11:55;6.60;99.90
18934;DHT22;9599;53.706;10.384;2023-02-01T12:14:39;6.50;99.90
18934;DHT22;9599;53.706;10.384;2023-02-01T12:17:35;6.50;99.90
18934;DHT22;9599;53.706;10.384;2023-02-01T12:20:28;6.50;99.90
18934;DHT22;9599;53.706;10.384;2023-02-01T12:23:10;6.40;99.90
18934;DHT22;9599;53.706;10.384;2023-02-01T12:26:02;6.40;99.90
18934;DHT22;9599;53.706;10.384;2023-02-01T12:31:45;6.40;99.90
18934;DHT22;9599;53.706;10.384;2023-02-01T12:34:46;6.40;99.90
18934;DHT22;9599;53.706;10.384;2023-02-01T12:37:28;6.30;99.90
18934;DHT22;9599;53.706;10.384;2023-02-01T12:40:05;6.30;99.90
18934;DHT22;9599;53.706;10.384;2023-02-01T12:42:38;6.20;99.90
18934;DHT22;9599;53.706;10.384;2023-02-01T12:45:13;6.10;99.90
18934;DHT22;9599;53.706;10.384;2023-02-01T12:47:48;5.90;99.90
18934;DHT22;9599;53.706;10.384;2023-02-01T12:50:19;5.80;99.90
18934;DHT22;9599;53.706;10.384;2023-02-01T12:52:51;5.80;99.90
18934;DHT22;9599;53.706;10.384;2023-02-01T12:55:23;5.80;99.90
18934;DHT22;9599;53.706;10.384;2023-02-01T12:57:54;5.70;99.90
18934;DHT22;9599;53.706;10.384;2023-02-01T13:00:27;5.70;99.90
18934;DHT22;9599;53.706;10.384;2023-02-01T13:03:03;5.70;99.90
18934;DHT22;9599;53.706;10.384;2023-02-01T13:05:43;5.60;99.90
18934;DHT22;9599;53.706;10.384;2023-02-01T13:08:16;5.60;99.90
18934;DHT22;9599;53.706;10.384;2023-02-01T13:10:51;5.40;99.90
18934;DHT22;9599;53.706;10.384;2023-02-01T13:13:22;5.30;99.90
18934;DHT22;9599;53.706;10.384;2023-02-01T13:16:02;5.20;99.90
18934;DHT22;9599;53.706;10.384;2023-02-01T13:18:35;5.10;99.90
18934;DHT22;9599;53.706;10.384;2023-02-01T13:21:12;5.10;99.90
18934;DHT22;9599;53.706;10.384;2023-02-01T13:23:45;5.00;99.90
18934;DHT22;9599;53.706;10.384;2023-02-01T13:26:14;5.00;99.90
18934;DHT22;9599;53.706;10.384;2023-02-01T13:28:46;4.80;99.90
18934;DHT22;9599;53.706;10.384;2023-02-01T13:31:42;4.70;99.90
18934;DHT22;9599;53.706;10.384;2023-02-01T13:34:47;4.80;99.90
18934;DHT22;9599;53.706;10.384;2023-02-01T13:37:36;4.70;99.90
18934;DHT22;9599;53.706;10.384;2023-02-01T13:40:18;4.50;99.90
18934;DHT22;9599;53.706;10.384;2023-02-01T13:42:52;4.50;99.90
18934;DHT22;9599;53.706;10.384;2023-02-01T13:45:23;4.40;99.90
18934;DHT22;9599;53.706;10.384;2023-02-01T13:47:55;4.50;99.90
18934;DHT22;9599;53.706;10.384;2023-02-01T13:50:27;4.50;99.90
18934;DHT22;9599;53.706;10.384;2023-02-01T13:52:58;4.50;99.90
18934;DHT22;9599;53.706;10.384;2023-02-01T13:55:33;4.50;99.90
18934;DHT22;9599;53.706;10.384;2023-02-01T13:58:10;4.50;99.90
18934;DHT22;9599;53.706;10.384;2023-02-01T14:00:41;4.40;99.90
18934;DHT22;9599;53.706;10.384;2023-02-01T14:03:16;4.30;99.90
18934;DHT22;9599;53.706;10.384;2023-02-01T14:09:15;4.40;99.90
18934;DHT22;9599;53.706;10.384;2023-02-01T14:11:47;4.50;99.90
18934;DHT22;9599;53.706;10.384;2023-02-01T14:14:43;4.60;99.90
18934;DHT22;9599;53.706;10.384;2023-02-01T14:17:39;4.70;99.90
18934;DHT22;9599;53.706;10.384;2023-02-01T14:23:19;4.80;99.90
18934;DHT22;9599;53.706;10.384;2023-02-01T14:26:04;4.80;99.90
18934;DHT22;9599;53.706;10.384;2023-02-01T14:28:36;4.80;99.90
18934;DHT22;9599;53.706;10.384;2023-02-01T14:34:10;4.80;99.90
18934;DHT22;9599;53.706;10.384;2023-02-01T14:36:42;4.80;99.90
18934;DHT22;9599;53.706;10.384;2023-02-01T14:39:28;4.80;99.90
18934;DHT22;9599;53.706;10.384;2023-02-01T14:42:00;4.90;99.90
18934;DHT22;9599;53.706;10.384;2023-02-01T14:44:37;4.90;99.90
18934;DHT22;9599;53.706;10.384;2023-02-01T14:47:31;4.90;99.90
18934;DHT22;9599;53.706;10.384;2023-02-01T14:50:33;4.80;99.90
18934;DHT22;9599;53.706;10.384;2023-02-01T14:53:15;4.70;99.90
18934;DHT22;9599;53.706;10.384;2023-02-01T14:55:47;4.70;99.90
18934;DHT22;9599;53.706;10.384;2023-02-01T14:58:25;4.70;99.90
18934;DHT22;9599;53.706;10.384;2023-02-01T15:00:57;4.70;99.90
18934;DHT22;9599;53.706;10.384;2023-02-01T15:03:47;4.70;99.90
18934;DHT22;9599;53.706;10.384;2023-02-01T15:06:41;4.70;99.90
18934;DHT22;9599;53.706;10.384;2023-02-01T15:09:12;4.80;99.90
18934;DHT22;9599;53.706;10.384;2023-02-01T15:11:55;4.80;99.90
18934;DHT22;9599;53.706;10.384;2023-02-01T15:14:23;4.80;99.90
18934;DHT22;9599;53.706;10.384;2023-02-01T15:16:51;4.80;99.90
18934;DHT22;9599;53.706;10.384;2023-02-01T15:19:24;4.80;99.90
18934;DHT22;9599;53.706;10.384;2023-02-01T15:21:54;4.90;99.90
18934;DHT22;9599;53.706;10.384;2023-02-01T15:24:24;4.90;99.90
18934;DHT22;9599;53.706;10.384;2023-02-01T15:26:54;4.90;99.90
18934;DHT22;9599;53.706;10.384;2023-02-01T15:29:24;5.00;99.90
18934;DHT22;9599;53.706;10.384;2023-02-01T15:31:54;5.00;99.90
18934;DHT22;9599;53.706;10.384;2023-02-01T15:34:33;5.00;99.90
18934;DHT22;9599;53.706;10.384;2023-02-01T15:37:12;5.10;99.90
18934;DHT22;9599;53.706;10.384;2023-02-01T15:40:18;5.00;99.90
18934;DHT22;9599;53.706;10.384;2023-02-01T15:42:51;5.00;99.90
18934;DHT22;9599;53.706;10.384;2023-02-01T15:45:21;5.00;99.90
18934;DHT22;9599;53.706;10.384;2023-02-01T15:47:52;5.00;99.90
18934;DHT22;9599;53.706;10.384;2023-02-01T15:50:22;5.00;99.90
18934;DHT22;9599;53.706;10.384;2023-02-01T15:52:53;5.00;99.90
18934;DHT22;9599;53.706;10.384;2023-02-01T15:55:23;5.10;99.90
18934;DHT22;9599;53.706;10.384;2023-02-01T15:57:53;5.10;99.90
18934;DHT22;9599;53.706;10.384;2023-02-01T16:00:22;5.10;99.90
18934;DHT22;9599;53.706;10.384;2023-02-01T16:02:53;5.10;99.90
18934;DHT22;9599;53.706;10.384;2023-02-01T16:05:36;5.10;99.90
18934;DHT22;9599;53.706;10.384;2023-02-01T16:08:09;5.10;99.90
18934;DHT22;9599;53.706;10.384;2023-02-01T16:10:39;5.10;99.90
18934;DHT22;9599;53.706;10.384;2023-02-01T16:13:08;5.10;99.90
18934;DHT22;9599;53.706;10.384;2023-02-01T16:15:36;5.10;99.90
18934;DHT22;9599;53.706;10.384;2023-02-01T16:18:04;5.20;99.90
18934;DHT22;9599;53.706;10.384;2023-02-01T16:20:36;5.10;99.90
18934;DHT22;9599;53.706;10.384;2023-02-01T16:23:06;5.20;99.90
18934;DHT22;9599;53.706;10.384;2023-02-01T16:25:34;5.20;99.90
18934;DHT22;9599;53.706;10.384;2023-02-01T16:28:03;5.20;99.90
18934;DHT22;9599;53.706;10.384;2023-02-01T16:30:32;5.20;99.90
18934;DHT22;9599;53.706;10.384;2023-02-01T16:33:01;5.20;99.90
18934;DHT22;9599;53.706;10.384;2023-02-01T16:35:33;5.20;99.90
18934;DHT22;9599;53.706;10.384;2023-02-01T16:38:05;5.30;99.90